Silver Lion — V2QQ4 — position and weather

sailwx.info

Track history (hours):
 
Tides and Currents Weather Stations Pressure Air Temp Water Temp Dewpoint Dewpoint Depression Visibility Wind Speed Wind Dir Waves Ship Positions

Silver Lion

Last reported at 2017-Nov-24 03:07 UTC. Time now 2017-Nov-24 05:47 UTC.
Position N 45°05' E 036°29'.

Length 127 m; draft 4.9 m.

Type: Cargo ship. MMSI: 304072000.

Date/timePositionNaut miles runAvg speedWind from/ knotsBaromVisibWave heightAir tempDewpointWater temp
2017-Nov-24 03:07N 45°05' E 036°29'1 7.4
2017-Nov-24 02:58N 45°07' E 036°29'3 7.5
2017-Nov-24 02:30N 45°10' E 036°28'4 7.6
2017-Nov-24 02:00N 45°14' E 036°28'3 6.6
2017-Nov-24 01:30N 45°17' E 036°28'4 7.5
2017-Nov-24 01:01N 45°19' E 036°32'4 7.9
2017-Nov-24 00:30N 45°21' E 036°38'3 6.9
2017-Nov-24 00:00N 45°24' E 036°40'4 7.3
2017-Nov-23 23:30N 45°27' E 036°39'2 4.6
2017-Nov-23 23:01N 45°29' E 036°38'0 0.1
2017-Nov-23 22:25N 45°29' E 036°38'0 0.0
2017-Nov-23 21:58N 45°29' E 036°38'0 0.0
2017-Nov-23 21:28N 45°29' E 036°38'0 0.0
2017-Nov-23 20:58N 45°29' E 036°38'0 0.0
2017-Nov-23 20:28N 45°29' E 036°38'0 0.0
2017-Nov-23 19:55N 45°29' E 036°38'0 0.0
2017-Nov-23 19:28N 45°29' E 036°38'0 0.0
2017-Nov-23 18:58N 45°29' E 036°38'0 0.0
2017-Nov-23 18:28N 45°29' E 036°38'0 0.0
2017-Nov-23 17:58N 45°29' E 036°38'0 0.0
2017-Nov-23 17:28N 45°29' E 036°38'0 0.0
2017-Nov-23 16:58N 45°29' E 036°38'0 0.0
2017-Nov-23 16:28N 45°29' E 036°38'0 0.0
2017-Nov-23 15:58N 45°29' E 036°38'0 0.0
2017-Nov-23 15:28N 45°29' E 036°38'0 0.0
2017-Nov-23 14:58N 45°29' E 036°38'0 0.0
2017-Nov-23 14:22N 45°29' E 036°38'0 0.0
2017-Nov-23 13:58N 45°29' E 036°38'0 0.0
2017-Nov-23 13:28N 45°29' E 036°38'0 0.0
2017-Nov-23 12:58N 45°29' E 036°38'0 0.0
2017-Nov-23 12:28N 45°29' E 036°38'0 0.0
2017-Nov-23 11:58N 45°29' E 036°38'0 0.0
2017-Nov-23 11:25N 45°29' E 036°38'0 0.0
2017-Nov-23 10:58N 45°29' E 036°38'0 0.0
2017-Nov-23 10:31N 45°29' E 036°38'0 0.0
2017-Nov-23 10:01N 45°29' E 036°38'0 0.0
2017-Nov-23 09:30N 45°29' E 036°38'0 0.0
2017-Nov-23 09:01N 45°29' E 036°38'0 0.0
2017-Nov-23 08:31N 45°29' E 036°38'0 0.0
2017-Nov-23 08:01N 45°29' E 036°38'0 0.0
2017-Nov-23 07:31N 45°29' E 036°38'0 0.0
2017-Nov-23 07:01N 45°29' E 036°38'0 0.1
2017-Nov-23 06:31N 45°29' E 036°38'2 3.9
2017-Nov-23 06:01N 45°30' E 036°40'3 5.6
2017-Nov-23 05:31N 45°30' E 036°44'3 6.4
2017-Nov-23 05:01N 45°31' E 036°48'4 6.4
2017-Nov-23 04:25N 45°32' E 036°54'  
2017-Nov-20 00:30N 45°13' E 036°30'0 0.1
2017-Nov-19 23:57N 45°13' E 036°30'0 0.0
2017-Nov-19 23:27N 45°13' E 036°30'0 0.0
2017-Nov-19 23:00N 45°13' E 036°30'0 0.1
2017-Nov-19 22:30N 45°13' E 036°30'0 0.1
2017-Nov-19 21:54N 45°13' E 036°30'0 0.1
2017-Nov-19 21:30N 45°13' E 036°30'0 0.1
2017-Nov-19 20:57N 45°13' E 036°30'0 0.1
2017-Nov-19 20:30N 45°13' E 036°30'0 0.0
2017-Nov-19 20:00N 45°13' E 036°30'0 0.0
2017-Nov-19 19:21N 45°13' E 036°30'0 0.0
2017-Nov-19 18:45N 45°13' E 036°30'0 0.1
2017-Nov-19 18:27N 45°13' E 036°30'0 0.0
2017-Nov-19 17:57N 45°13' E 036°30'0 0.1
2017-Nov-19 17:30N 45°13' E 036°30'0 0.0
2017-Nov-19 16:57N 45°13' E 036°30'0 0.0
2017-Nov-19 16:30N 45°13' E 036°30'0 0.0
2017-Nov-19 15:57N 45°13' E 036°30'0 0.0
2017-Nov-19 15:24N 45°13' E 036°30'0 0.0
2017-Nov-19 14:57N 45°13' E 036°30'0 0.0
2017-Nov-19 14:30N 45°13' E 036°30'0 0.0
2017-Nov-19 14:00N 45°13' E 036°30'0 0.1
2017-Nov-19 13:29N 45°13' E 036°30'2 3.5
2017-Nov-19 13:00N 45°12' E 036°29'4 7.2
2017-Nov-19 12:30N 45°08' E 036°30'4 7.3
2017-Nov-19 12:00N 45°04' E 036°31'  
2017-Nov-17 00:35N 41°01' E 029°00'1 6.5
2017-Nov-17 00:25N 41°00' E 028°60'2 5.6
2017-Nov-17 00:00N 40°58' E 028°59'3 5.0
2017-Nov-16 23:26N 40°56' E 028°56'1 0.2
2017-Nov-16 16:13N 40°57' E 028°56'1 6.1
2017-Nov-16 15:59N 40°57' E 028°58'3 7.0
2017-Nov-16 15:29N 40°54' E 029°00'4 7.4
2017-Nov-16 15:00N 40°51' E 029°03'4 7.4
2017-Nov-16 14:30N 40°48' E 029°06'4 8.1
2017-Nov-16 14:00N 40°46' E 029°11'4 8.2
2017-Nov-16 13:30N 40°45' E 029°16'4 8.7
2017-Nov-16 13:00N 40°44' E 029°22'5 9.4
2017-Nov-16 12:27N 40°45' E 029°29'2 5.2
2017-Nov-16 12:00N 40°46' E 029°31'0 0.0
2017-Nov-16 11:27N 40°46' E 029°31'4 0.1
2017-Nov-14 09:16N 40°46' E 029°26'0 0.1
2017-Nov-14 08:59N 40°46' E 029°26'2 4.3
2017-Nov-14 08:29N 40°44' E 029°25'4 7.4
2017-Nov-14 07:57N 40°44' E 029°20'3 7.6
2017-Nov-14 07:30N 40°45' E 029°15'4 7.7
2017-Nov-14 07:00N 40°47' E 029°11'4 7.6
2017-Nov-14 06:30N 40°48' E 029°06'4 7.5
2017-Nov-14 06:00N 40°49' E 029°01'4 7.6
2017-Nov-14 05:30N 40°51' E 028°57'  
Track history (hours):
 
Tides and Currents Weather Stations Pressure Air Temp Water Temp Dewpoint Dewpoint Depression Visibility Wind Speed Wind Dir Waves Ship Positions

Silver Lion

Last reported at 2017-Nov-24 03:07 UTC. Time now 2017-Nov-24 05:47 UTC.
Position N 45°05' E 036°29'.

Length 127 m; draft 4.9 m.

Type: Cargo ship. MMSI: 304072000.

Date/timePositionNaut miles runAvg speedWind from/ knotsBaromVisibWave heightAir tempDewpointWater temp
2017-Nov-24 03:07N 45°05' E 036°29'1 7.4
2017-Nov-24 02:58N 45°07' E 036°29'3 7.5
2017-Nov-24 02:30N 45°10' E 036°28'4 7.6
2017-Nov-24 02:00N 45°14' E 036°28'3 6.6
2017-Nov-24 01:30N 45°17' E 036°28'4 7.5
2017-Nov-24 01:01N 45°19' E 036°32'4 7.9
2017-Nov-24 00:30N 45°21' E 036°38'3 6.9
2017-Nov-24 00:00N 45°24' E 036°40'4 7.3
2017-Nov-23 23:30N 45°27' E 036°39'2 4.6
2017-Nov-23 23:01N 45°29' E 036°38'0 0.1
2017-Nov-23 22:25N 45°29' E 036°38'0 0.0
2017-Nov-23 21:58N 45°29' E 036°38'0 0.0
2017-Nov-23 21:28N 45°29' E 036°38'0 0.0
2017-Nov-23 20:58N 45°29' E 036°38'0 0.0
2017-Nov-23 20:28N 45°29' E 036°38'0 0.0
2017-Nov-23 19:55N 45°29' E 036°38'0 0.0
2017-Nov-23 19:28N 45°29' E 036°38'0 0.0
2017-Nov-23 18:58N 45°29' E 036°38'0 0.0
2017-Nov-23 18:28N 45°29' E 036°38'0 0.0
2017-Nov-23 17:58N 45°29' E 036°38'0 0.0
2017-Nov-23 17:28N 45°29' E 036°38'0 0.0
2017-Nov-23 16:58N 45°29' E 036°38'0 0.0
2017-Nov-23 16:28N 45°29' E 036°38'0 0.0
2017-Nov-23 15:58N 45°29' E 036°38'0 0.0
2017-Nov-23 15:28N 45°29' E 036°38'0 0.0
2017-Nov-23 14:58N 45°29' E 036°38'0 0.0
2017-Nov-23 14:22N 45°29' E 036°38'0 0.0
2017-Nov-23 13:58N 45°29' E 036°38'0 0.0
2017-Nov-23 13:28N 45°29' E 036°38'0 0.0
2017-Nov-23 12:58N 45°29' E 036°38'0 0.0
2017-Nov-23 12:28N 45°29' E 036°38'0 0.0
2017-Nov-23 11:58N 45°29' E 036°38'0 0.0
2017-Nov-23 11:25N 45°29' E 036°38'0 0.0
2017-Nov-23 10:58N 45°29' E 036°38'0 0.0
2017-Nov-23 10:31N 45°29' E 036°38'0 0.0
2017-Nov-23 10:01N 45°29' E 036°38'0 0.0
2017-Nov-23 09:30N 45°29' E 036°38'0 0.0
2017-Nov-23 09:01N 45°29' E 036°38'0 0.0
2017-Nov-23 08:31N 45°29' E 036°38'0 0.0
2017-Nov-23 08:01N 45°29' E 036°38'0 0.0
2017-Nov-23 07:31N 45°29' E 036°38'0 0.0
2017-Nov-23 07:01N 45°29' E 036°38'0 0.1
2017-Nov-23 06:31N 45°29' E 036°38'2 3.9
2017-Nov-23 06:01N 45°30' E 036°40'3 5.6
2017-Nov-23 05:31N 45°30' E 036°44'3 6.4
2017-Nov-23 05:01N 45°31' E 036°48'4 6.4
2017-Nov-23 04:25N 45°32' E 036°54'  
2017-Nov-20 00:30N 45°13' E 036°30'0 0.1
2017-Nov-19 23:57N 45°13' E 036°30'0 0.0
2017-Nov-19 23:27N 45°13' E 036°30'0 0.0
2017-Nov-19 23:00N 45°13' E 036°30'0 0.1
2017-Nov-19 22:30N 45°13' E 036°30'0 0.1
2017-Nov-19 21:54N 45°13' E 036°30'0 0.1
2017-Nov-19 21:30N 45°13' E 036°30'0 0.1
2017-Nov-19 20:57N 45°13' E 036°30'0 0.1
2017-Nov-19 20:30N 45°13' E 036°30'0 0.0
2017-Nov-19 20:00N 45°13' E 036°30'0 0.0
2017-Nov-19 19:21N 45°13' E 036°30'0 0.0
2017-Nov-19 18:45N 45°13' E 036°30'0 0.1
2017-Nov-19 18:27N 45°13' E 036°30'0 0.0
2017-Nov-19 17:57N 45°13' E 036°30'0 0.1
2017-Nov-19 17:30N 45°13' E 036°30'0 0.0
2017-Nov-19 16:57N 45°13' E 036°30'0 0.0
2017-Nov-19 16:30N 45°13' E 036°30'0 0.0
2017-Nov-19 15:57N 45°13' E 036°30'0 0.0
2017-Nov-19 15:24N 45°13' E 036°30'0 0.0
2017-Nov-19 14:57N 45°13' E 036°30'0 0.0
2017-Nov-19 14:30N 45°13' E 036°30'0 0.0
2017-Nov-19 14:00N 45°13' E 036°30'0 0.1
2017-Nov-19 13:29N 45°13' E 036°30'2 3.5
2017-Nov-19 13:00N 45°12' E 036°29'4 7.2
2017-Nov-19 12:30N 45°08' E 036°30'4 7.3
2017-Nov-19 12:00N 45°04' E 036°31'  
2017-Nov-17 00:35N 41°01' E 029°00'1 6.5
2017-Nov-17 00:25N 41°00' E 028°60'2 5.6
2017-Nov-17 00:00N 40°58' E 028°59'3 5.0
2017-Nov-16 23:26N 40°56' E 028°56'1 0.2
2017-Nov-16 16:13N 40°57' E 028°56'1 6.1
2017-Nov-16 15:59N 40°57' E 028°58'3 7.0
2017-Nov-16 15:29N 40°54' E 029°00'4 7.4
2017-Nov-16 15:00N 40°51' E 029°03'4 7.4
2017-Nov-16 14:30N 40°48' E 029°06'4 8.1
2017-Nov-16 14:00N 40°46' E 029°11'4 8.2
2017-Nov-16 13:30N 40°45' E 029°16'4 8.7
2017-Nov-16 13:00N 40°44' E 029°22'5 9.4
2017-Nov-16 12:27N 40°45' E 029°29'2 5.2
2017-Nov-16 12:00N 40°46' E 029°31'0 0.0
2017-Nov-16 11:27N 40°46' E 029°31'4 0.1
2017-Nov-14 09:16N 40°46' E 029°26'0 0.1
2017-Nov-14 08:59N 40°46' E 029°26'2 4.3
2017-Nov-14 08:29N 40°44' E 029°25'4 7.4
2017-Nov-14 07:57N 40°44' E 029°20'3 7.6
2017-Nov-14 07:30N 40°45' E 029°15'4 7.7
2017-Nov-14 07:00N 40°47' E 029°11'4 7.6
2017-Nov-14 06:30N 40°48' E 029°06'4 7.5
2017-Nov-14 06:00N 40°49' E 029°01'4 7.6
2017-Nov-14 05:30N 40°51' E 028°57'  

Dump ship's entire track history